Time;durP1;ratioP1;P1;durP2;ratioP2;P2;SDS_P1;SDS_P2;PMS_P1;PMS_P2;Temp;Humidity;BMP_temperature;BMP_pressure;BME280_temperature;BME280_humidity;BME280_pressure;Samples;Min_cycle;Max_cycle;Signal;HPM_P1;HPM_P2
2022/03/01 00:01:37;;;;;;;16.60;11.77;;;;;;;;;;4995315;28;20288;-81
2022/03/01 00:04:06;;;;;;;18.10;11.70;;;;;;;;;;4992353;28;20312;-81
2022/03/01 00:06:33;;;;;;;17.63;11.30;;;;;;;;;;4994803;28;20239;-80
2022/03/01 00:09:00;;;;;;;15.93;11.20;;;;;;;;;;5007591;28;20295;-80
2022/03/01 00:11:28;;;;;;;18.90;12.07;;;;;;;;;;5008940;28;20335;-80
2022/03/01 00:13:55;;;;;;;18.27;11.57;;;;;;;;;;5012373;28;20232;-80
2022/03/01 00:16:22;;;;;;;18.20;10.87;;;;;;;;;;4998749;28;20289;-80
2022/03/01 00:18:49;;;;;;;15.40;10.90;;;;;;;;;;4992718;28;20229;-80
2022/03/01 00:21:18;;;;;;;17.30;10.93;;;;;;;;;;5009391;28;20232;-80
2022/03/01 00:23:45;;;;;;;16.20;10.60;;;;;;;;;;5011742;28;20676;-81
2022/03/01 00:26:12;;;;;;;18.83;11.10;;;;;;;;;;5012131;28;20634;-81
2022/03/01 00:28:40;;;;;;;15.90;11.20;;;;;;;;;;5011987;28;20238;-80
2022/03/01 00:31:07;;;;;;;16.60;10.53;;;;;;;;;;5011628;28;20232;-80
2022/03/01 00:33:34;;;;;;;18.07;10.77;;;;;;;;;;5012321;28;20209;-81
2022/03/01 00:36:02;;;;;;;15.03;10.07;;;;;;;;;;4998872;28;20708;-81
2022/03/01 00:38:30;;;;;;;18.27;10.63;;;;;;;;;;4992418;28;20628;-81
2022/03/01 00:40:58;;;;;;;14.90;10.90;;;;;;;;;;5009501;28;20286;-81
2022/03/01 00:43:25;;;;;;;17.53;10.83;;;;;;;;;;5004909;28;20225;-81
2022/03/01 00:45:53;;;;;;;17.83;11.07;;;;;;;;;;4992744;28;20752;-80
2022/03/01 00:48:20;;;;;;;19.40;11.57;;;;;;;;;;4992918;28;20313;-81
2022/03/01 00:50:48;;;;;;;18.27;11.43;;;;;;;;;;4993113;28;20204;-81
2022/03/01 00:53:15;;;;;;;18.67;12.57;;;;;;;;;;5010378;28;20303;-81
2022/03/01 00:55:44;;;;;;;16.30;11.93;;;;;;;;;;5011028;28;20604;-80
2022/03/01 00:58:11;;;;;;;17.97;13.13;;;;;;;;;;5016098;28;20738;-80
2022/03/01 01:00:38;;;;;;;18.57;13.43;;;;;;;;;;5008834;28;20264;-80
2022/03/01 01:03:05;;;;;;;19.03;13.13;;;;;;;;;;5014233;28;20236;-80
2022/03/01 01:05:32;;;;;;;17.67;12.03;;;;;;;;;;5011986;28;20239;-81
2022/03/01 01:08:00;;;;;;;21.17;12.73;;;;;;;;;;5015461;28;20715;-81
2022/03/01 01:10:27;;;;;;;19.80;13.20;;;;;;;;;;5015844;28;20246;-81
2022/03/01 01:12:55;;;;;;;18.03;12.83;;;;;;;;;;5015023;28;20247;-81
2022/03/01 01:15:23;;;;;;;19.63;12.73;;;;;;;;;;5000089;28;20230;-80
2022/03/01 01:17:50;;;;;;;19.90;12.97;;;;;;;;;;4996353;28;20241;-81
2022/03/01 01:20:18;;;;;;;19.83;13.27;;;;;;;;;;5004305;28;20233;-81
2022/03/01 01:22:45;;;;;;;19.10;12.93;;;;;;;;;;5015836;28;20284;-81
2022/03/01 01:25:14;;;;;;;18.43;13.00;;;;;;;;;;5015123;28;20679;-81
2022/03/01 01:27:41;;;;;;;18.33;13.23;;;;;;;;;;5015368;28;20250;-81
2022/03/01 01:30:11;;;;;;;19.00;13.77;;;;;;;;;;5014954;28;20284;-81
2022/03/01 01:32:39;;;;;;;20.10;13.53;;;;;;;;;;5015018;28;20280;-81
2022/03/01 01:35:06;;;;;;;20.47;13.07;;;;;;;;;;5014960;28;20308;-82
2022/03/01 01:37:33;;;;;;;19.07;12.93;;;;;;;;;;5015334;28;20236;-82
2022/03/01 01:40:01;;;;;;;19.83;13.50;;;;;;;;;;5015155;28;20309;-81
2022/03/01 01:42:28;;;;;;;17.77;13.40;;;;;;;;;;4998977;28;20252;-81
2022/03/01 01:44:55;;;;;;;19.93;13.60;;;;;;;;;;4995441;28;20315;-81
2022/03/01 01:47:24;;;;;;;21.53;14.10;;;;;;;;;;5010276;28;20238;-80
2022/03/01 01:49:51;;;;;;;19.73;13.90;;;;;;;;;;5012862;28;20249;-81
2022/03/01 01:52:18;;;;;;;21.07;14.63;;;;;;;;;;5013844;28;20255;-81
2022/03/01 01:54:46;;;;;;;19.87;13.87;;;;;;;;;;5011440;28;20253;-81
2022/03/01 01:57:16;;;;;;;20.70;14.13;;;;;;;;;;5014490;28;20236;-81
2022/03/01 01:59:43;;;;;;;19.30;13.03;;;;;;;;;;4995145;28;20231;-81
2022/03/01 02:02:11;;;;;;;20.40;13.97;;;;;;;;;;4995339;28;20229;-81
2022/03/01 02:04:40;;;;;;;21.00;13.30;;;;;;;;;;4995301;28;20236;-80
2022/03/01 02:07:08;;;;;;;21.57;13.00;;;;;;;;;;4993998;28;20273;-81
2022/03/01 02:09:35;;;;;;;19.63;13.03;;;;;;;;;;5003613;28;20744;-81
2022/03/01 02:12:03;;;;;;;19.63;13.43;;;;;;;;;;5014649;28;20229;-81
2022/03/01 02:14:31;;;;;;;18.73;12.90;;;;;;;;;;5014243;28;20229;-81
2022/03/01 02:16:58;;;;;;;22.77;12.40;;;;;;;;;;5006000;28;20205;-81
2022/03/01 02:19:25;;;;;;;17.50;12.63;;;;;;;;;;5013653;28;20672;-81
2022/03/01 02:21:55;;;;;;;19.80;12.17;;;;;;;;;;5013813;28;20287;-81
2022/03/01 02:24:24;;;;;;;22.53;12.13;;;;;;;;;;5014046;28;20288;-81
2022/03/01 02:26:51;;;;;;;16.67;11.83;;;;;;;;;;5014463;28;20252;-81
2022/03/01 02:29:18;;;;;;;16.87;11.77;;;;;;;;;;5005110;28;20645;-81
2022/03/01 02:31:45;;;;;;;20.67;12.03;;;;;;;;;;4999200;28;20336;-81
2022/03/01 02:34:12;;;;;;;17.57;12.33;;;;;;;;;;5010542;28;20315;-81
2022/03/01 02:36:40;;;;;;;15.30;11.77;;;;;;;;;;5013420;28;20356;-81
2022/03/01 02:39:08;;;;;;;16.17;11.93;;;;;;;;;;5013815;28;20240;-81
2022/03/01 02:41:38;;;;;;;18.97;13.00;;;;;;;;;;5005559;28;20201;-81
2022/03/01 02:44:05;;;;;;;19.80;11.97;;;;;;;;;;5000462;28;20285;-81
2022/03/01 02:46:32;;;;;;;18.57;12.33;;;;;;;;;;5013435;28;20244;-81
2022/03/01 02:49:00;;;;;;;18.83;13.10;;;;;;;;;;5013290;28;20683;-82
2022/03/01 02:51:27;;;;;;;17.50;12.63;;;;;;;;;;5006116;28;20692;-82
2022/03/01 02:53:55;;;;;;;19.13;13.40;;;;;;;;;;5013144;28;20272;-81
2022/03/01 02:56:24;;;;;;;18.93;13.77;;;;;;;;;;5013345;28;20204;-82
2022/03/01 02:58:51;;;;;;;19.93;13.47;;;;;;;;;;5007293;28;20263;-81
2022/03/01 03:01:18;;;;;;;20.77;13.97;;;;;;;;;;4994089;28;20293;-82
2022/03/01 03:03:45;;;;;;;18.23;13.83;;;;;;;;;;4994299;28;20281;-81
2022/03/01 03:06:13;;;;;;;17.67;13.80;;;;;;;;;;4993309;28;20238;-81
2022/03/01 03:08:40;;;;;;;21.87;14.50;;;;;;;;;;5005258;28;20343;-81
2022/03/01 03:11:07;;;;;;;16.43;14.23;;;;;;;;;;5013417;28;20279;-81
2022/03/01 03:13:37;;;;;;;19.90;14.50;;;;;;;;;;5004940;28;20194;-81
2022/03/01 03:16:04;;;;;;;22.43;15.13;;;;;;;;;;4996470;28;20212;-82
2022/03/01 03:18:32;;;;;;;20.93;14.33;;;;;;;;;;5000257;28;20205;-82
2022/03/01 03:20:59;;;;;;;21.87;15.27;;;;;;;;;;4993959;28;20229;-81
2022/03/01 03:23:26;;;;;;;19.40;14.50;;;;;;;;;;4993984;28;20237;-82
2022/03/01 03:25:54;;;;;;;20.47;14.87;;;;;;;;;;5008664;28;20239;-81
2022/03/01 03:28:22;;;;;;;18.70;14.57;;;;;;;;;;5012343;28;20229;-81
2022/03/01 03:30:50;;;;;;;19.43;14.63;;;;;;;;;;5013237;28;20203;-81
2022/03/01 03:33:17;;;;;;;20.60;14.10;;;;;;;;;;4996694;28;20233;-81
2022/03/01 03:35:45;;;;;;;18.47;14.30;;;;;;;;;;5012322;28;20222;-82
2022/03/01 03:38:12;;;;;;;20.97;14.87;;;;;;;;;;5013169;28;20242;-81
2022/03/01 03:40:39;;;;;;;18.50;14.37;;;;;;;;;;5011704;28;20279;-81
2022/03/01 03:43:06;;;;;;;24.43;15.47;;;;;;;;;;5012839;28;20221;-81
2022/03/01 03:45:33;;;;;;;19.70;15.43;;;;;;;;;;5009538;28;20209;-81
2022/03/01 03:48:02;;;;;;;22.97;15.60;;;;;;;;;;4993395;28;20289;-81
2022/03/01 03:50:30;;;;;;;21.83;15.47;;;;;;;;;;4998228;28;20279;-81
2022/03/01 03:52:57;;;;;;;23.00;15.50;;;;;;;;;;5013187;28;20233;-81
2022/03/01 03:55:24;;;;;;;20.70;15.23;;;;;;;;;;5008308;28;20227;-81
2022/03/01 03:57:51;;;;;;;20.03;16.07;;;;;;;;;;5028425;28;20291;-81
2022/03/01 04:00:19;;;;;;;20.97;15.57;;;;;;;;;;5012329;28;20324;-75
2022/03/01 04:02:47;;;;;;;17.90;15.23;;;;;;;;;;5011658;28;20237;-75
2022/03/01 04:05:16;;;;;;;22.93;15.37;;;;;;;;;;5011865;28;20284;-75
2022/03/01 04:07:43;;;;;;;20.83;15.20;;;;;;;;;;5011611;28;20227;-75
2022/03/01 04:10:11;;;;;;;22.23;15.37;;;;;;;;;;5011038;28;20287;-76
2022/03/01 04:12:39;;;;;;;21.00;15.17;;;;;;;;;;5011099;28;20283;-75
2022/03/01 04:15:07;;;;;;;24.83;15.87;;;;;;;;;;4996264;28;20257;-76
2022/03/01 04:17:34;;;;;;;22.53;15.33;;;;;;;;;;5011982;28;20304;-75
2022/03/01 04:20:02;;;;;;;21.37;15.63;;;;;;;;;;5011268;28;20197;-75
2022/03/01 04:22:32;;;;;;;21.17;15.00;;;;;;;;;;4992344;28;20205;-75
2022/03/01 04:24:59;;;;;;;20.07;14.97;;;;;;;;;;5007006;28;20296;-75
2022/03/01 04:27:26;;;;;;;22.20;14.67;;;;;;;;;;5005975;28;20287;-76
2022/03/01 04:29:53;;;;;;;19.90;15.20;;;;;;;;;;5011658;28;20268;-76
2022/03/01 04:32:21;;;;;;;19.93;14.33;;;;;;;;;;5015241;28;20319;-75
2022/03/01 04:34:48;;;;;;;19.40;15.03;;;;;;;;;;5015606;28;20316;-76
2022/03/01 04:37:15;;;;;;;19.67;14.70;;;;;;;;;;5012949;28;20204;-76
2022/03/01 04:39:44;;;;;;;20.40;15.17;;;;;;;;;;5011870;28;20596;-75
2022/03/01 04:42:12;;;;;;;21.47;15.13;;;;;;;;;;5015757;28;20236;-76
2022/03/01 04:44:39;;;;;;;21.17;15.43;;;;;;;;;;5015285;28;20197;-76
2022/03/01 04:47:06;;;;;;;21.93;15.93;;;;;;;;;;5015380;28;20235;-75
2022/03/01 04:49:34;;;;;;;21.27;15.93;;;;;;;;;;5014676;28;20288;-75
2022/03/01 04:52:01;;;;;;;24.40;16.23;;;;;;;;;;5009051;28;20960;-75
2022/03/01 04:54:28;;;;;;;21.63;15.17;;;;;;;;;;5014628;28;20230;-75
2022/03/01 04:56:57;;;;;;;22.00;15.93;;;;;;;;;;5011110;28;20294;-75
2022/03/01 04:59:24;;;;;;;22.50;14.83;;;;;;;;;;5008564;28;20788;-75
2022/03/01 05:01:51;;;;;;;21.73;16.03;;;;;;;;;;4995944;28;20233;-75
2022/03/01 05:04:18;;;;;;;23.03;16.10;;;;;;;;;;4996396;28;20284;-76
2022/03/01 05:06:47;;;;;;;23.50;15.80;;;;;;;;;;5014578;28;20205;-75
2022/03/01 05:09:14;;;;;;;19.93;15.33;;;;;;;;;;5001418;28;20229;-75
2022/03/01 05:11:42;;;;;;;23.07;15.57;;;;;;;;;;4995462;28;20237;-75
2022/03/01 05:14:10;;;;;;;19.10;14.60;;;;;;;;;;5003544;28;20201;-75
2022/03/01 05:16:38;;;;;;;21.63;15.13;;;;;;;;;;5013354;28;20661;-75
2022/03/01 05:19:06;;;;;;;18.87;15.27;;;;;;;;;;5010455;28;20198;-76
2022/03/01 05:21:34;;;;;;;20.67;15.50;;;;;;;;;;5011861;28;20200;-75
2022/03/01 05:24:01;;;;;;;20.23;14.77;;;;;;;;;;5014353;28;20201;-76
2022/03/01 05:26:28;;;;;;;19.73;14.70;;;;;;;;;;5007067;28;20872;-75
2022/03/01 05:28:56;;;;;;;20.63;14.90;;;;;;;;;;5011897;28;20257;-75
2022/03/01 05:31:24;;;;;;;20.47;15.00;;;;;;;;;;5014508;28;20327;-76
2022/03/01 05:33:52;;;;;;;18.87;14.90;;;;;;;;;;5014766;28;20568;-75
2022/03/01 05:36:20;;;;;;;21.47;15.47;;;;;;;;;;5015163;28;20257;-75
2022/03/01 05:38:47;;;;;;;23.33;15.87;;;;;;;;;;5014392;28;20267;-75
2022/03/01 05:41:15;;;;;;;19.03;15.63;;;;;;;;;;5009645;28;20200;-76
2022/03/01 05:43:42;;;;;;;21.57;14.67;;;;;;;;;;5014734;28;20290;-75
2022/03/01 05:46:10;;;;;;;17.50;14.63;;;;;;;;;;5014014;28;20200;-75
2022/03/01 05:48:38;;;;;;;18.73;14.40;;;;;;;;;;5014781;28;20237;-75
2022/03/01 05:51:06;;;;;;;19.13;15.47;;;;;;;;;;5013229;28;20304;-76
2022/03/01 05:53:33;;;;;;;19.27;14.93;;;;;;;;;;5014671;28;20205;-75
2022/03/01 05:56:01;;;;;;;22.73;17.90;;;;;;;;;;5014105;28;20303;-76
2022/03/01 05:58:28;;;;;;;20.73;16.67;;;;;;;;;;5014457;28;20260;-75
2022/03/01 06:00:55;;;;;;;18.50;14.53;;;;;;;;;;5006852;28;20669;-75
2022/03/01 06:03:22;;;;;;;23.70;16.10;;;;;;;;;;5013818;28;20668;-75
2022/03/01 06:05:51;;;;;;;22.03;15.43;;;;;;;;;;5000071;28;20248;-75
2022/03/01 06:08:18;;;;;;;31.87;24.33;;;;;;;;;;5009650;28;20255;-75
2022/03/01 06:10:45;;;;;;;22.13;17.67;;;;;;;;;;5011181;28;20276;-76
2022/03/01 06:13:12;;;;;;;23.63;19.00;;;;;;;;;;5002626;28;20238;-78
2022/03/01 06:15:39;;;;;;;21.33;16.70;;;;;;;;;;5006913;28;20252;-77
2022/03/01 06:18:07;;;;;;;19.63;15.37;;;;;;;;;;5011016;28;20237;-76
2022/03/01 06:20:34;;;;;;;24.53;15.13;;;;;;;;;;4994575;28;20238;-76
2022/03/01 06:23:02;;;;;;;19.53;14.13;;;;;;;;;;5005852;28;20245;-76
2022/03/01 06:25:30;;;;;;;18.67;14.63;;;;;;;;;;5000036;28;20284;-77
2022/03/01 06:27:57;;;;;;;19.77;14.27;;;;;;;;;;5012675;28;20239;-76
2022/03/01 06:30:25;;;;;;;17.33;13.90;;;;;;;;;;5006788;28;20200;-76
2022/03/01 06:32:52;;;;;;;17.63;14.10;;;;;;;;;;5006922;28;20289;-76
2022/03/01 06:35:19;;;;;;;20.03;14.67;;;;;;;;;;5006287;28;20252;-77
2022/03/01 06:37:47;;;;;;;19.87;14.87;;;;;;;;;;4999340;28;20289;-78
2022/03/01 06:40:15;;;;;;;19.33;13.77;;;;;;;;;;4994967;28;20205;-77
2022/03/01 06:42:43;;;;;;;15.87;13.03;;;;;;;;;;5003572;28;20213;-77
2022/03/01 06:45:10;;;;;;;20.30;13.70;;;;;;;;;;5000008;28;20619;-77
2022/03/01 06:47:37;;;;;;;18.43;13.77;;;;;;;;;;5012107;28;20243;-77
2022/03/01 06:50:05;;;;;;;19.30;13.13;;;;;;;;;;4999773;28;20204;-77
2022/03/01 06:52:34;;;;;;;20.17;13.97;;;;;;;;;;4993044;28;20650;-77
2022/03/01 06:55:02;;;;;;;17.03;13.20;;;;;;;;;;4994147;28;20229;-76
2022/03/01 06:57:30;;;;;;;22.17;13.17;;;;;;;;;;4993969;28;20205;-77
2022/03/01 06:59:58;;;;;;;21.37;13.57;;;;;;;;;;5010809;28;20287;-77
2022/03/01 07:02:26;;;;;;;17.13;13.73;;;;;;;;;;5012385;28;20292;-76
2022/03/01 07:04:54;;;;;;;18.10;13.80;;;;;;;;;;5002382;28;20208;-77
2022/03/01 07:07:22;;;;;;;19.87;14.00;;;;;;;;;;4994478;28;20254;-77
2022/03/01 07:09:49;;;;;;;18.70;14.10;;;;;;;;;;4998747;28;20197;-77
2022/03/01 07:12:17;;;;;;;20.27;13.57;;;;;;;;;;5012175;28;20295;-77
2022/03/01 07:14:45;;;;;;;18.90;13.50;;;;;;;;;;5007621;28;20233;-77
2022/03/01 07:17:12;;;;;;;18.33;13.87;;;;;;;;;;5010222;28;20284;-77
2022/03/01 07:19:40;;;;;;;18.17;14.00;;;;;;;;;;5012067;28;20247;-77
2022/03/01 07:22:07;;;;;;;20.90;14.03;;;;;;;;;;4997972;28;20230;-77
2022/03/01 07:24:34;;;;;;;21.47;14.37;;;;;;;;;;5002442;28;20235;-83
2022/03/01 07:27:01;;;;;;;18.63;13.93;;;;;;;;;;5011531;28;20197;-82
2022/03/01 07:29:30;;;;;;;17.80;13.47;;;;;;;;;;5006236;28;20297;-83
2022/03/01 07:31:59;;;;;;;18.97;13.33;;;;;;;;;;5003038;28;20676;-83
2022/03/01 07:34:26;;;;;;;19.10;13.67;;;;;;;;;;5003386;28;20283;-83
2022/03/01 07:36:54;;;;;;;19.27;13.73;;;;;;;;;;5004783;28;20252;-83
2022/03/01 07:39:21;;;;;;;19.50;15.07;;;;;;;;;;4999448;28;20233;-83
2022/03/01 07:41:48;;;;;;;22.03;13.73;;;;;;;;;;5005855;28;20610;-85
2022/03/01 07:44:15;;;;;;;20.10;13.50;;;;;;;;;;5006041;28;20380;-82
2022/03/01 07:46:42;;;;;;;16.63;12.83;;;;;;;;;;5000809;28;20226;-82
2022/03/01 07:49:11;;;;;;;15.13;13.03;;;;;;;;;;4998927;28;20232;-82
2022/03/01 07:51:38;;;;;;;16.23;13.47;;;;;;;;;;5003103;28;20258;-82
2022/03/01 07:54:06;;;;;;;17.67;12.70;;;;;;;;;;5006072;28;20229;-82
2022/03/01 07:56:33;;;;;;;19.27;13.63;;;;;;;;;;5002984;28;20317;-82
2022/03/01 07:59:01;;;;;;;16.57;13.20;;;;;;;;;;4998977;28;20315;-83
2022/03/01 08:01:28;;;;;;;17.57;12.77;;;;;;;;;;4998374;28;20228;-82
2022/03/01 08:03:55;;;;;;;16.77;13.23;;;;;;;;;;5006287;28;20384;-83
2022/03/01 08:06:24;;;;;;;16.67;12.53;;;;;;;;;;5003590;28;20653;-83
2022/03/01 08:08:51;;;;;;;16.50;12.53;;;;;;;;;;5004395;28;20232;-83
2022/03/01 08:11:18;;;;;;;18.27;12.40;;;;;;;;;;5000228;28;20288;-83
2022/03/01 08:13:46;;;;;;;18.47;12.20;;;;;;;;;;4999493;28;20749;-83
2022/03/01 08:16:13;;;;;;;17.33;12.23;;;;;;;;;;5004519;28;20274;-83
2022/03/01 08:18:40;;;;;;;15.73;12.60;;;;;;;;;;5009958;28;20232;-82
2022/03/01 08:21:08;;;;;;;17.07;12.43;;;;;;;;;;4999974;28;20263;-83
2022/03/01 08:23:36;;;;;;;16.63;11.43;;;;;;;;;;4998197;28;20240;-83
2022/03/01 08:26:04;;;;;;;15.10;11.97;;;;;;;;;;4999679;28;20239;-83
2022/03/01 08:28:32;;;;;;;17.03;13.00;;;;;;;;;;4999056;28;20543;-83
2022/03/01 08:30:59;;;;;;;17.67;12.27;;;;;;;;;;4999458;28;20671;-82
2022/03/01 08:33:26;;;;;;;16.20;12.20;;;;;;;;;;5000654;28;20708;-82
2022/03/01 08:35:55;;;;;;;16.77;11.70;;;;;;;;;;4996499;28;20255;-82
2022/03/01 08:38:22;;;;;;;17.27;12.33;;;;;;;;;;5005483;28;20212;-82
2022/03/01 08:40:51;;;;;;;17.83;12.37;;;;;;;;;;5002507;28;20205;-83
2022/03/01 08:43:20;;;;;;;16.00;11.90;;;;;;;;;;4992036;28;20294;-83
2022/03/01 08:45:47;;;;;;;18.13;11.83;;;;;;;;;;5008121;28;20858;-83
2022/03/01 08:48:14;;;;;;;16.73;11.33;;;;;;;;;;4995515;28;20752;-84
2022/03/01 08:50:42;;;;;;;19.63;11.93;;;;;;;;;;5010518;28;20238;-84
2022/03/01 08:53:09;;;;;;;18.30;11.63;;;;;;;;;;4995970;28;20201;-84
2022/03/01 08:55:37;;;;;;;16.83;11.70;;;;;;;;;;5004765;28;20722;-84
2022/03/01 08:58:05;;;;;;;18.97;11.23;;;;;;;;;;5001632;28;20232;-84
2022/03/01 09:00:33;;;;;;;13.63;10.60;;;;;;;;;;5011414;28;20691;-83
2022/03/01 09:03:00;;;;;;;19.77;10.83;;;;;;;;;;5009551;28;20206;-84
2022/03/01 09:05:27;;;;;;;16.17;10.90;;;;;;;;;;5003584;28;20232;-84
2022/03/01 09:07:55;;;;;;;18.10;11.03;;;;;;;;;;5011813;28;20252;-85
2022/03/01 09:10:23;;;;;;;16.87;10.43;;;;;;;;;;5011958;28;20740;-85
2022/03/01 09:12:51;;;;;;;15.57;10.93;;;;;;;;;;5004772;28;20743;-84
2022/03/01 09:15:19;;;;;;;15.73;11.27;;;;;;;;;;4993281;28;20213;-85
2022/03/01 09:17:47;;;;;;;14.43;10.33;;;;;;;;;;5013774;28;20225;-84
2022/03/01 09:20:15;;;;;;;13.13;10.13;;;;;;;;;;5015770;28;20627;-87
2022/03/01 09:22:42;;;;;;;15.37;11.07;;;;;;;;;;5014240;28;20207;-87
2022/03/01 09:25:10;;;;;;;14.97;10.60;;;;;;;;;;5012163;28;20626;-86
2022/03/01 09:27:37;;;;;;;16.33;11.27;;;;;;;;;;5005555;28;20309;-86
2022/03/01 09:30:06;;;;;;;15.07;10.80;;;;;;;;;;5008401;28;20234;-85
2022/03/01 09:32:34;;;;;;;16.23;11.67;;;;;;;;;;5006183;28;20738;-84
2022/03/01 09:35:02;;;;;;;15.30;10.27;;;;;;;;;;5001539;28;20561;-84
2022/03/01 09:37:32;;;;;;;15.50;10.70;;;;;;;;;;5003986;28;20253;-84
2022/03/01 09:39:59;;;;;;;16.77;10.27;;;;;;;;;;5006366;28;20291;-84
2022/03/01 09:42:27;;;;;;;16.77;10.67;;;;;;;;;;4999990;28;20209;-84
2022/03/01 09:44:55;;;;;;;14.30;10.40;;;;;;;;;;4998013;28;20193;-84
2022/03/01 09:47:22;;;;;;;15.57;10.50;;;;;;;;;;5004905;28;20208;-84
2022/03/01 09:49:51;;;;;;;14.43;10.73;;;;;;;;;;5002086;28;20229;-86
2022/03/01 09:52:18;;;;;;;17.63;11.00;;;;;;;;;;5008210;28;20569;-88
2022/03/01 09:54:46;;;;;;;14.87;10.20;;;;;;;;;;4998556;28;20206;-87
2022/03/01 09:57:14;;;;;;;16.60;10.43;;;;;;;;;;5009459;28;20321;-87
2022/03/01 09:59:41;;;;;;;13.23;10.13;;;;;;;;;;5001732;28;20261;-85
2022/03/01 10:02:09;;;;;;;13.87;10.50;;;;;;;;;;5010778;28;20193;-88
2022/03/01 10:04:39;;;;;;;15.53;10.63;;;;;;;;;;5010835;28;20284;-88
2022/03/01 10:07:11;;;;;;;14.23;10.17;;;;;;;;;;5012798;28;20193;-85
2022/03/01 10:09:42;;;;;;;15.57;10.57;;;;;;;;;;5013945;28;20266;-84
2022/03/01 10:12:09;;;;;;;14.27;10.50;;;;;;;;;;5013512;28;20283;-84
2022/03/01 10:14:38;;;;;;;12.40;9.93;;;;;;;;;;5006786;28;20288;-84
2022/03/01 10:17:12;;;;;;;15.07;11.07;;;;;;;;;;5013483;28;20249;-84
2022/03/01 10:19:40;;;;;;;14.97;10.80;;;;;;;;;;5014420;28;20254;-84
2022/03/01 10:22:08;;;;;;;13.70;10.13;;;;;;;;;;5013085;28;20228;-84
2022/03/01 10:24:35;;;;;;;13.73;10.13;;;;;;;;;;5014301;28;20288;-84
2022/03/01 10:27:05;;;;;;;16.73;10.70;;;;;;;;;;5012799;28;20239;-84
2022/03/01 10:29:32;;;;;;;14.37;10.73;;;;;;;;;;5014169;28;20197;-84
2022/03/01 10:32:11;;;;;;;15.30;9.97;;;;;;;;;;4994234;28;20688;-84
2022/03/01 10:34:38;;;;;;;13.87;10.00;;;;;;;;;;4994416;28;20288;-84
2022/03/01 10:37:05;;;;;;;13.60;10.70;;;;;;;;;;4994581;28;20312;-84
2022/03/01 10:39:34;;;;;;;15.97;10.83;;;;;;;;;;4994290;28;20295;-84
2022/03/01 10:42:05;;;;;;;14.20;10.00;;;;;;;;;;4994479;28;20260;-85
2022/03/01 10:44:32;;;;;;;14.80;10.73;;;;;;;;;;5008657;28;20201;-85
2022/03/01 10:47:01;;;;;;;12.87;10.20;;;;;;;;;;5004123;28;20662;-85
2022/03/01 10:49:29;;;;;;;14.00;9.97;;;;;;;;;;4993447;28;20319;-85
2022/03/01 10:51:58;;;;;;;15.07;10.07;;;;;;;;;;4994351;28;20673;-85
2022/03/01 10:54:26;;;;;;;13.23;10.00;;;;;;;;;;4993563;28;20205;-84
2022/03/01 10:56:56;;;;;;;15.53;10.90;;;;;;;;;;4994125;28;20319;-85
2022/03/01 10:59:24;;;;;;;13.07;10.27;;;;;;;;;;5004081;28;20738;-84
2022/03/01 11:01:51;;;;;;;18.10;10.70;;;;;;;;;;5013308;28;20247;-85
2022/03/01 11:04:21;;;;;;;16.70;10.50;;;;;;;;;;5013127;28;20232;-85
2022/03/01 11:06:49;;;;;;;15.67;11.00;;;;;;;;;;5013484;28;20220;-85
2022/03/01 11:09:17;;;;;;;18.33;11.53;;;;;;;;;;5013458;28;20213;-85
2022/03/01 11:11:45;;;;;;;14.50;10.23;;;;;;;;;;5013527;28;20634;-84
2022/03/01 11:14:16;;;;;;;15.13;11.37;;;;;;;;;;5013247;28;20225;-85
2022/03/01 11:16:54;;;;;;;13.53;10.40;;;;;;;;;;5012035;28;20310;-85
2022/03/01 11:19:36;;;;;;;15.17;11.40;;;;;;;;;;5013170;28;20205;-84
2022/03/01 11:22:03;;;;;;;14.70;11.00;;;;;;;;;;5012845;28;20216;-85
2022/03/01 11:24:31;;;;;;;14.30;10.37;;;;;;;;;;5004088;28;20681;-84
2022/03/01 11:27:05;;;;;;;14.60;11.20;;;;;;;;;;4998518;28;20203;-84
2022/03/01 11:29:38;;;;;;;22.97;11.10;;;;;;;;;;5012838;28;20203;-84
2022/03/01 11:32:11;;;;;;;17.57;11.40;;;;;;;;;;5012773;28;20560;-85
2022/03/01 11:34:39;;;;;;;15.90;11.90;;;;;;;;;;5012256;28;20237;-84
2022/03/01 11:37:12;;;;;;;14.83;10.87;;;;;;;;;;5012478;28;20253;-85
2022/03/01 11:39:40;;;;;;;13.70;9.70;;;;;;;;;;5012642;28;20283;-84
2022/03/01 11:42:07;;;;;;;16.33;11.57;;;;;;;;;;5012949;28;20288;-85
2022/03/01 11:44:37;;;;;;;17.10;11.70;;;;;;;;;;5012406;28;20281;-85
2022/03/01 11:47:07;;;;;;;15.17;11.23;;;;;;;;;;5012372;28;20225;-84
2022/03/01 11:49:35;;;;;;;19.13;10.70;;;;;;;;;;5012222;28;20300;-85
2022/03/01 11:52:02;;;;;;;14.50;11.30;;;;;;;;;;5012877;28;20538;-85
2022/03/01 11:54:30;;;;;;;13.70;11.70;;;;;;;;;;5012247;28;20209;-85
2022/03/01 11:56:59;;;;;;;14.97;10.63;;;;;;;;;;5011795;28;20256;-84
2022/03/01 11:59:26;;;;;;;13.97;11.53;;;;;;;;;;5010966;28;20300;-85
2022/03/01 12:01:55;;;;;;;13.17;10.83;;;;;;;;;;5011367;28;20280;-85
2022/03/01 12:04:26;;;;;;;17.73;11.63;;;;;;;;;;5012163;28;20232;-84
2022/03/01 12:06:55;;;;;;;13.33;11.17;;;;;;;;;;5012236;28;20201;-85
2022/03/01 12:09:23;;;;;;;17.67;11.27;;;;;;;;;;5012360;28;20197;-84
2022/03/01 12:11:51;;;;;;;14.80;11.07;;;;;;;;;;5004128;28;20198;-85
2022/03/01 12:14:19;;;;;;;16.27;11.13;;;;;;;;;;5012228;28;20244;-85
2022/03/01 12:16:47;;;;;;;14.80;11.17;;;;;;;;;;5011527;28;20323;-85
2022/03/01 12:19:17;;;;;;;15.40;11.43;;;;;;;;;;5012110;28;20259;-85
2022/03/01 12:21:49;;;;;;;14.13;11.27;;;;;;;;;;5012444;28;20216;-84
2022/03/01 12:24:17;;;;;;;15.93;11.40;;;;;;;;;;4993216;28;20258;-85
2022/03/01 12:26:45;;;;;;;15.43;11.77;;;;;;;;;;4992818;28;20313;-85
2022/03/01 12:29:12;;;;;;;14.23;10.27;;;;;;;;;;4999135;28;20648;-85
2022/03/01 12:31:40;;;;;;;15.13;10.77;;;;;;;;;;5006707;28;20209;-85
2022/03/01 12:34:08;;;;;;;16.50;10.93;;;;;;;;;;4992595;28;20288;-84
2022/03/01 12:36:39;;;;;;;16.20;11.00;;;;;;;;;;4992562;28;20233;-84
2022/03/01 12:39:08;;;;;;;15.43;10.80;;;;;;;;;;5009160;28;20684;-85
2022/03/01 12:41:35;;;;;;;14.80;11.13;;;;;;;;;;5012264;28;20236;-85
2022/03/01 12:44:03;;;;;;;15.67;11.73;;;;;;;;;;5011783;28;20239;-85
2022/03/01 12:46:31;;;;;;;15.30;11.50;;;;;;;;;;5011724;28;20205;-85
2022/03/01 12:48:59;;;;;;;15.87;11.87;;;;;;;;;;5000044;28;20205;-85
2022/03/01 12:51:27;;;;;;;14.13;11.30;;;;;;;;;;4996942;28;20959;-83
2022/03/01 12:53:57;;;;;;;16.03;11.03;;;;;;;;;;5011705;28;20692;-84
2022/03/01 12:56:25;;;;;;;14.53;11.00;;;;;;;;;;5004704;28;20241;-83
2022/03/01 12:58:53;;;;;;;16.50;11.63;;;;;;;;;;4998855;28;20315;-84
2022/03/01 13:01:21;;;;;;;15.90;11.40;;;;;;;;;;5000895;28;20693;-84
2022/03/01 13:03:50;;;;;;;14.13;10.80;;;;;;;;;;5003500;28;20313;-84
2022/03/01 13:06:18;;;;;;;14.33;11.43;;;;;;;;;;4998544;28;20202;-83
2022/03/01 13:08:47;;;;;;;14.77;11.17;;;;;;;;;;5014615;28;20189;-84
2022/03/01 13:11:16;;;;;;;13.77;10.50;;;;;;;;;;4998970;28;20205;-85
2022/03/01 13:13:45;;;;;;;14.57;10.47;;;;;;;;;;5011120;28;20316;-85
2022/03/01 13:16:17;;;;;;;13.93;10.57;;;;;;;;;;5011159;28;20645;-85
2022/03/01 13:18:44;;;;;;;14.17;10.83;;;;;;;;;;5009447;28;20252;-85
2022/03/01 13:21:12;;;;;;;13.80;9.43;;;;;;;;;;5013734;28;20276;-86
2022/03/01 13:23:40;;;;;;;12.00;9.70;;;;;;;;;;5008152;28;20208;-85
2022/03/01 13:26:08;;;;;;;12.77;10.10;;;;;;;;;;5002206;28;20194;-85
2022/03/01 13:28:38;;;;;;;13.20;10.47;;;;;;;;;;5012288;28;20205;-86
2022/03/01 13:31:06;;;;;;;15.97;9.93;;;;;;;;;;5012085;28;20225;-86
2022/03/01 13:33:34;;;;;;;12.63;8.83;;;;;;;;;;4999063;28;20236;-84
2022/03/01 13:36:11;;;;;;;16.73;9.83;;;;;;;;;;5009620;28;20919;-85
2022/03/01 13:38:39;;;;;;;11.57;9.33;;;;;;;;;;5003439;28;20672;-86
2022/03/01 13:41:06;;;;;;;11.53;8.50;;;;;;;;;;5014084;28;20203;-85
2022/03/01 13:43:33;;;;;;;13.43;8.30;;;;;;;;;;5013722;28;20201;-86
2022/03/01 13:46:04;;;;;;;10.27;7.23;;;;;;;;;;5011565;28;20255;-86
2022/03/01 13:48:31;;;;;;;10.10;7.30;;;;;;;;;;5004576;28;20251;-85
2022/03/01 13:51:02;;;;;;;11.47;7.40;;;;;;;;;;5009854;28;20287;-84
2022/03/01 13:53:30;;;;;;;11.97;7.33;;;;;;;;;;5009463;28;20749;-85
2022/03/01 13:55:57;;;;;;;9.97;7.40;;;;;;;;;;5008193;28;20232;-86
2022/03/01 13:58:26;;;;;;;11.47;7.00;;;;;;;;;;5002686;28;20309;-86
2022/03/01 14:00:55;;;;;;;12.67;8.53;;;;;;;;;;5000630;28;20264;-85
2022/03/01 14:03:25;;;;;;;10.93;8.80;;;;;;;;;;5010889;28;20243;-85
2022/03/01 14:05:56;;;;;;;12.77;9.17;;;;;;;;;;5013516;28;20259;-86
2022/03/01 14:08:24;;;;;;;15.50;9.87;;;;;;;;;;5003428;28;20289;-86
2022/03/01 14:10:52;;;;;;;13.13;9.90;;;;;;;;;;5012493;28;20287;-86
2022/03/01 14:13:20;;;;;;;15.23;10.13;;;;;;;;;;4998341;28;20210;-86
2022/03/01 14:15:50;;;;;;;12.53;9.37;;;;;;;;;;5005853;28;20216;-86
2022/03/01 14:18:17;;;;;;;10.87;9.57;;;;;;;;;;5004040;28;20866;-86
2022/03/01 14:20:48;;;;;;;11.63;8.73;;;;;;;;;;5001377;28;20221;-84
2022/03/01 14:23:15;;;;;;;12.73;8.97;;;;;;;;;;5004438;28;20661;-84